sensor_id;sensor_type;location;lat;lon;timestamp;P1;durP1;ratioP1;P2;durP2;ratioP2
62584;SDS011;48643;51.670;5.808;2023-07-02T00:02:18;9.18;;;3.50;;
62584;SDS011;48643;51.670;5.808;2023-07-02T00:04:45;6.65;;;3.17;;
62584;SDS011;48643;51.670;5.808;2023-07-02T00:07:13;12.27;;;3.40;;
62584;SDS011;48643;51.670;5.808;2023-07-02T00:09:43;5.90;;;2.97;;
62584;SDS011;48643;51.670;5.808;2023-07-02T00:12:10;7.32;;;3.22;;
62584;SDS011;48643;51.670;5.808;2023-07-02T00:14:36;7.88;;;3.65;;
62584;SDS011;48643;51.670;5.808;2023-07-02T00:17:03;9.02;;;3.55;;
62584;SDS011;48643;51.670;5.808;2023-07-02T00:19:30;9.30;;;3.72;;
62584;SDS011;48643;51.670;5.808;2023-07-02T00:21:57;7.20;;;3.50;;
62584;SDS011;48643;51.670;5.808;2023-07-02T00:24:24;8.02;;;3.65;;
62584;SDS011;48643;51.670;5.808;2023-07-02T00:26:51;7.82;;;3.50;;
62584;SDS011;48643;51.670;5.808;2023-07-02T00:29:18;8.35;;;4.00;;
62584;SDS011;48643;51.670;5.808;2023-07-02T00:31:45;6.90;;;3.60;;
62584;SDS011;48643;51.670;5.808;2023-07-02T00:34:12;7.20;;;3.40;;
62584;SDS011;48643;51.670;5.808;2023-07-02T00:36:40;7.65;;;3.70;;
62584;SDS011;48643;51.670;5.808;2023-07-02T00:41:38;7.57;;;4.18;;
62584;SDS011;48643;51.670;5.808;2023-07-02T00:44:05;9.52;;;4.03;;
62584;SDS011;48643;51.670;5.808;2023-07-02T00:46:32;7.93;;;3.90;;
62584;SDS011;48643;51.670;5.808;2023-07-02T00:48:59;11.10;;;4.32;;
62584;SDS011;48643;51.670;5.808;2023-07-02T00:51:28;12.80;;;4.57;;
62584;SDS011;48643;51.670;5.808;2023-07-02T00:53:57;11.07;;;4.03;;
62584;SDS011;48643;51.670;5.808;2023-07-02T00:58:53;9.23;;;4.30;;
62584;SDS011;48643;51.670;5.808;2023-07-02T01:01:21;8.27;;;4.47;;
62584;SDS011;48643;51.670;5.808;2023-07-02T01:03:50;10.43;;;4.88;;
62584;SDS011;48643;51.670;5.808;2023-07-02T01:06:24;13.18;;;4.57;;
62584;SDS011;48643;51.670;5.808;2023-07-02T01:08:55;10.98;;;4.60;;
62584;SDS011;48643;51.670;5.808;2023-07-02T01:11:25;11.38;;;5.10;;
62584;SDS011;48643;51.670;5.808;2023-07-02T01:14:02;12.23;;;5.40;;
62584;SDS011;48643;51.670;5.808;2023-07-02T01:16:34;11.82;;;4.82;;
62584;SDS011;48643;51.670;5.808;2023-07-02T01:19:04;13.75;;;5.38;;
62584;SDS011;48643;51.670;5.808;2023-07-02T01:21:32;11.27;;;5.15;;
62584;SDS011;48643;51.670;5.808;2023-07-02T01:24:00;14.10;;;5.05;;
62584;SDS011;48643;51.670;5.808;2023-07-02T01:26:31;11.75;;;5.07;;
62584;SDS011;48643;51.670;5.808;2023-07-02T01:29:15;15.35;;;6.38;;
62584;SDS011;48643;51.670;5.808;2023-07-02T01:31:43;12.48;;;5.43;;
62584;SDS011;48643;51.670;5.808;2023-07-02T01:34:11;13.35;;;5.47;;
62584;SDS011;48643;51.670;5.808;2023-07-02T01:36:38;14.13;;;5.38;;
62584;SDS011;48643;51.670;5.808;2023-07-02T01:39:06;13.20;;;5.43;;
62584;SDS011;48643;51.670;5.808;2023-07-02T01:41:37;11.68;;;5.50;;
62584;SDS011;48643;51.670;5.808;2023-07-02T01:44:08;9.77;;;5.30;;
62584;SDS011;48643;51.670;5.808;2023-07-02T01:46:35;11.63;;;5.25;;
62584;SDS011;48643;51.670;5.808;2023-07-02T01:49:02;10.77;;;5.13;;
62584;SDS011;48643;51.670;5.808;2023-07-02T01:51:28;11.68;;;5.45;;
62584;SDS011;48643;51.670;5.808;2023-07-02T01:53:55;10.35;;;5.10;;
62584;SDS011;48643;51.670;5.808;2023-07-02T01:56:22;9.02;;;4.78;;
62584;SDS011;48643;51.670;5.808;2023-07-02T01:58:49;11.63;;;5.30;;
62584;SDS011;48643;51.670;5.808;2023-07-02T02:01:16;9.52;;;5.35;;
62584;SDS011;48643;51.670;5.808;2023-07-02T02:03:43;9.75;;;4.95;;
62584;SDS011;48643;51.670;5.808;2023-07-02T02:06:10;9.55;;;5.03;;
62584;SDS011;48643;51.670;5.808;2023-07-02T02:08:37;10.30;;;5.43;;
62584;SDS011;48643;51.670;5.808;2023-07-02T02:11:04;12.40;;;5.18;;
62584;SDS011;48643;51.670;5.808;2023-07-02T02:13:33;10.83;;;5.10;;
62584;SDS011;48643;51.670;5.808;2023-07-02T02:15:59;12.93;;;5.40;;
62584;SDS011;48643;51.670;5.808;2023-07-02T02:18:26;12.23;;;5.35;;
62584;SDS011;48643;51.670;5.808;2023-07-02T02:20:53;12.75;;;5.50;;
62584;SDS011;48643;51.670;5.808;2023-07-02T02:23:20;11.43;;;5.63;;
62584;SDS011;48643;51.670;5.808;2023-07-02T02:25:47;12.63;;;5.70;;
62584;SDS011;48643;51.670;5.808;2023-07-02T02:28:14;15.52;;;5.93;;
62584;SDS011;48643;51.670;5.808;2023-07-02T02:30:41;10.55;;;5.10;;
62584;SDS011;48643;51.670;5.808;2023-07-02T02:33:07;12.13;;;5.78;;
62584;SDS011;48643;51.670;5.808;2023-07-02T02:35:34;12.32;;;5.90;;
62584;SDS011;48643;51.670;5.808;2023-07-02T02:38:02;11.70;;;5.57;;
62584;SDS011;48643;51.670;5.808;2023-07-02T02:42:57;10.05;;;5.50;;
62584;SDS011;48643;51.670;5.808;2023-07-02T02:45:24;10.82;;;5.95;;
62584;SDS011;48643;51.670;5.808;2023-07-02T02:47:51;10.57;;;5.40;;
62584;SDS011;48643;51.670;5.808;2023-07-02T02:50:19;12.65;;;5.63;;
62584;SDS011;48643;51.670;5.808;2023-07-02T02:52:46;12.95;;;6.10;;
62584;SDS011;48643;51.670;5.808;2023-07-02T02:55:13;12.27;;;5.55;;
62584;SDS011;48643;51.670;5.808;2023-07-02T02:57:40;10.93;;;5.82;;
62584;SDS011;48643;51.670;5.808;2023-07-02T03:00:07;10.70;;;6.07;;
62584;SDS011;48643;51.670;5.808;2023-07-02T03:02:36;10.77;;;6.05;;
62584;SDS011;48643;51.670;5.808;2023-07-02T03:05:03;13.13;;;6.10;;
62584;SDS011;48643;51.670;5.808;2023-07-02T03:07:30;11.82;;;6.47;;
62584;SDS011;48643;51.670;5.808;2023-07-02T03:09:58;13.85;;;5.93;;
62584;SDS011;48643;51.670;5.808;2023-07-02T03:12:26;15.93;;;6.40;;
62584;SDS011;48643;51.670;5.808;2023-07-02T03:14:53;14.20;;;6.07;;
62584;SDS011;48643;51.670;5.808;2023-07-02T03:17:21;13.73;;;6.70;;
62584;SDS011;48643;51.670;5.808;2023-07-02T03:19:49;14.13;;;6.47;;
62584;SDS011;48643;51.670;5.808;2023-07-02T03:22:16;13.45;;;6.63;;
62584;SDS011;48643;51.670;5.808;2023-07-02T03:24:43;12.60;;;6.25;;
62584;SDS011;48643;51.670;5.808;2023-07-02T03:27:11;11.57;;;6.40;;
62584;SDS011;48643;51.670;5.808;2023-07-02T03:29:38;13.95;;;6.75;;
62584;SDS011;48643;51.670;5.808;2023-07-02T03:32:05;12.80;;;6.35;;
62584;SDS011;48643;51.670;5.808;2023-07-02T03:34:32;14.43;;;6.45;;
62584;SDS011;48643;51.670;5.808;2023-07-02T03:36:59;13.68;;;6.95;;
62584;SDS011;48643;51.670;5.808;2023-07-02T03:39:26;14.23;;;6.40;;
62584;SDS011;48643;51.670;5.808;2023-07-02T03:41:53;15.98;;;6.97;;
62584;SDS011;48643;51.670;5.808;2023-07-02T03:44:20;14.75;;;6.85;;
62584;SDS011;48643;51.670;5.808;2023-07-02T03:46:47;14.27;;;6.28;;
62584;SDS011;48643;51.670;5.808;2023-07-02T03:49:14;14.48;;;6.97;;
62584;SDS011;48643;51.670;5.808;2023-07-02T03:51:41;13.38;;;6.57;;
62584;SDS011;48643;51.670;5.808;2023-07-02T03:54:08;13.55;;;6.68;;
62584;SDS011;48643;51.670;5.808;2023-07-02T03:56:34;14.20;;;6.60;;
62584;SDS011;48643;51.670;5.808;2023-07-02T03:59:01;11.85;;;6.45;;
62584;SDS011;48643;51.670;5.808;2023-07-02T04:01:28;14.88;;;6.68;;
62584;SDS011;48643;51.670;5.808;2023-07-02T04:03:55;13.85;;;6.80;;
62584;SDS011;48643;51.670;5.808;2023-07-02T04:06:23;13.23;;;6.45;;
62584;SDS011;48643;51.670;5.808;2023-07-02T04:08:49;15.70;;;7.30;;
62584;SDS011;48643;51.670;5.808;2023-07-02T04:11:16;13.98;;;6.47;;
62584;SDS011;48643;51.670;5.808;2023-07-02T04:13:43;11.57;;;6.60;;
62584;SDS011;48643;51.670;5.808;2023-07-02T04:16:10;14.82;;;6.70;;
62584;SDS011;48643;51.670;5.808;2023-07-02T04:18:37;16.10;;;6.70;;
62584;SDS011;48643;51.670;5.808;2023-07-02T04:21:04;14.60;;;7.20;;
62584;SDS011;48643;51.670;5.808;2023-07-02T04:23:31;14.40;;;7.25;;
62584;SDS011;48643;51.670;5.808;2023-07-02T04:25:58;13.93;;;6.75;;
62584;SDS011;48643;51.670;5.808;2023-07-02T04:28:44;16.00;;;7.10;;
62584;SDS011;48643;51.670;5.808;2023-07-02T04:31:11;14.05;;;6.63;;
62584;SDS011;48643;51.670;5.808;2023-07-02T04:33:39;17.15;;;6.72;;
62584;SDS011;48643;51.670;5.808;2023-07-02T04:36:06;12.77;;;6.78;;
62584;SDS011;48643;51.670;5.808;2023-07-02T04:38:33;15.23;;;7.35;;
62584;SDS011;48643;51.670;5.808;2023-07-02T04:40:59;15.20;;;7.00;;
62584;SDS011;48643;51.670;5.808;2023-07-02T04:43:32;14.20;;;6.95;;
62584;SDS011;48643;51.670;5.808;2023-07-02T04:46:00;13.35;;;7.03;;
62584;SDS011;48643;51.670;5.808;2023-07-02T04:48:27;15.95;;;7.15;;
62584;SDS011;48643;51.670;5.808;2023-07-02T04:50:54;15.05;;;6.85;;
62584;SDS011;48643;51.670;5.808;2023-07-02T04:53:21;20.25;;;7.18;;
62584;SDS011;48643;51.670;5.808;2023-07-02T04:55:48;13.13;;;6.70;;
62584;SDS011;48643;51.670;5.808;2023-07-02T04:58:15;14.27;;;6.88;;
62584;SDS011;48643;51.670;5.808;2023-07-02T05:00:42;13.98;;;7.05;;
62584;SDS011;48643;51.670;5.808;2023-07-02T05:03:09;15.43;;;7.07;;
62584;SDS011;48643;51.670;5.808;2023-07-02T05:05:36;14.80;;;7.30;;
62584;SDS011;48643;51.670;5.808;2023-07-02T05:08:03;13.82;;;7.10;;
62584;SDS011;48643;51.670;5.808;2023-07-02T05:10:33;11.93;;;6.45;;
62584;SDS011;48643;51.670;5.808;2023-07-02T05:13:00;14.52;;;6.93;;
62584;SDS011;48643;51.670;5.808;2023-07-02T05:15:26;13.88;;;6.80;;
62584;SDS011;48643;51.670;5.808;2023-07-02T05:17:53;17.60;;;7.60;;
62584;SDS011;48643;51.670;5.808;2023-07-02T05:20:20;15.38;;;7.22;;
62584;SDS011;48643;51.670;5.808;2023-07-02T05:22:47;13.90;;;7.20;;
62584;SDS011;48643;51.670;5.808;2023-07-02T05:25:14;15.23;;;7.22;;
62584;SDS011;48643;51.670;5.808;2023-07-02T05:27:40;13.05;;;6.68;;
62584;SDS011;48643;51.670;5.808;2023-07-02T05:30:07;13.45;;;6.95;;
62584;SDS011;48643;51.670;5.808;2023-07-02T05:32:35;17.80;;;7.88;;
62584;SDS011;48643;51.670;5.808;2023-07-02T05:35:02;14.18;;;7.68;;
62584;SDS011;48643;51.670;5.808;2023-07-02T05:37:29;12.65;;;6.72;;
62584;SDS011;48643;51.670;5.808;2023-07-02T05:39:56;17.45;;;7.65;;
62584;SDS011;48643;51.670;5.808;2023-07-02T05:42:23;17.98;;;8.13;;
62584;SDS011;48643;51.670;5.808;2023-07-02T05:44:49;13.32;;;7.22;;
62584;SDS011;48643;51.670;5.808;2023-07-02T05:47:16;18.20;;;7.25;;
62584;SDS011;48643;51.670;5.808;2023-07-02T05:49:43;16.27;;;7.38;;
62584;SDS011;48643;51.670;5.808;2023-07-02T05:52:10;20.42;;;7.90;;
62584;SDS011;48643;51.670;5.808;2023-07-02T05:54:40;14.45;;;7.20;;
62584;SDS011;48643;51.670;5.808;2023-07-02T05:57:07;15.13;;;7.15;;
62584;SDS011;48643;51.670;5.808;2023-07-02T05:59:34;18.67;;;7.72;;
62584;SDS011;48643;51.670;5.808;2023-07-02T06:02:01;14.88;;;7.18;;
62584;SDS011;48643;51.670;5.808;2023-07-02T06:04:28;15.50;;;6.95;;
62584;SDS011;48643;51.670;5.808;2023-07-02T06:06:54;14.32;;;7.32;;
62584;SDS011;48643;51.670;5.808;2023-07-02T06:09:21;13.80;;;7.00;;
62584;SDS011;48643;51.670;5.808;2023-07-02T06:11:48;11.93;;;6.65;;
62584;SDS011;48643;51.670;5.808;2023-07-02T06:14:15;11.40;;;6.70;;
62584;SDS011;48643;51.670;5.808;2023-07-02T06:16:42;29.38;;;8.98;;
62584;SDS011;48643;51.670;5.808;2023-07-02T06:19:09;20.75;;;8.25;;
62584;SDS011;48643;51.670;5.808;2023-07-02T06:21:36;23.95;;;8.52;;
62584;SDS011;48643;51.670;5.808;2023-07-02T06:24:03;27.20;;;8.73;;
62584;SDS011;48643;51.670;5.808;2023-07-02T06:26:30;31.23;;;8.70;;
62584;SDS011;48643;51.670;5.808;2023-07-02T06:28:58;23.40;;;8.63;;
62584;SDS011;48643;51.670;5.808;2023-07-02T06:31:25;25.20;;;8.68;;
62584;SDS011;48643;51.670;5.808;2023-07-02T06:33:53;27.30;;;8.65;;
62584;SDS011;48643;51.670;5.808;2023-07-02T06:36:19;20.20;;;8.40;;
62584;SDS011;48643;51.670;5.808;2023-07-02T06:38:46;24.33;;;8.02;;
62584;SDS011;48643;51.670;5.808;2023-07-02T06:41:14;28.13;;;8.70;;
62584;SDS011;48643;51.670;5.808;2023-07-02T06:43:44;24.00;;;7.93;;
62584;SDS011;48643;51.670;5.808;2023-07-02T06:46:11;23.85;;;8.02;;
62584;SDS011;48643;51.670;5.808;2023-07-02T06:48:38;22.08;;;7.30;;
62584;SDS011;48643;51.670;5.808;2023-07-02T06:51:05;27.42;;;8.23;;
62584;SDS011;48643;51.670;5.808;2023-07-02T06:53:33;22.73;;;8.15;;
62584;SDS011;48643;51.670;5.808;2023-07-02T06:56:00;22.90;;;7.60;;
62584;SDS011;48643;51.670;5.808;2023-07-02T06:58:27;26.55;;;7.13;;
62584;SDS011;48643;51.670;5.808;2023-07-02T07:00:54;20.45;;;7.40;;
62584;SDS011;48643;51.670;5.808;2023-07-02T07:03:20;19.77;;;7.20;;
62584;SDS011;48643;51.670;5.808;2023-07-02T07:05:47;19.95;;;7.25;;
62584;SDS011;48643;51.670;5.808;2023-07-02T07:08:15;18.83;;;6.90;;
62584;SDS011;48643;51.670;5.808;2023-07-02T07:10:41;18.55;;;6.60;;
62584;SDS011;48643;51.670;5.808;2023-07-02T07:13:08;17.73;;;6.32;;
62584;SDS011;48643;51.670;5.808;2023-07-02T07:15:37;19.27;;;6.50;;
62584;SDS011;48643;51.670;5.808;2023-07-02T07:18:04;20.88;;;6.32;;
62584;SDS011;48643;51.670;5.808;2023-07-02T07:20:31;18.27;;;6.43;;
62584;SDS011;48643;51.670;5.808;2023-07-02T07:22:58;15.90;;;6.30;;
62584;SDS011;48643;51.670;5.808;2023-07-02T07:25:25;18.88;;;6.72;;
62584;SDS011;48643;51.670;5.808;2023-07-02T07:27:52;16.95;;;6.68;;
62584;SDS011;48643;51.670;5.808;2023-07-02T07:30:19;21.73;;;6.60;;
62584;SDS011;48643;51.670;5.808;2023-07-02T07:32:50;17.75;;;6.47;;
62584;SDS011;48643;51.670;5.808;2023-07-02T07:35:17;19.90;;;6.93;;
62584;SDS011;48643;51.670;5.808;2023-07-02T07:37:45;17.70;;;6.32;;
62584;SDS011;48643;51.670;5.808;2023-07-02T07:40:12;17.73;;;6.18;;
62584;SDS011;48643;51.670;5.808;2023-07-02T07:42:39;18.77;;;6.50;;
62584;SDS011;48643;51.670;5.808;2023-07-02T07:45:09;15.35;;;6.47;;
62584;SDS011;48643;51.670;5.808;2023-07-02T07:47:36;18.20;;;6.33;;
62584;SDS011;48643;51.670;5.808;2023-07-02T07:50:03;19.10;;;5.95;;
62584;SDS011;48643;51.670;5.808;2023-07-02T07:52:37;17.85;;;6.35;;
62584;SDS011;48643;51.670;5.808;2023-07-02T07:55:07;16.02;;;6.03;;
62584;SDS011;48643;51.670;5.808;2023-07-02T07:57:34;14.82;;;6.25;;
62584;SDS011;48643;51.670;5.808;2023-07-02T08:00:03;17.27;;;6.47;;
62584;SDS011;48643;51.670;5.808;2023-07-02T08:02:41;18.33;;;6.53;;
62584;SDS011;48643;51.670;5.808;2023-07-02T08:05:09;14.00;;;5.95;;
62584;SDS011;48643;51.670;5.808;2023-07-02T08:07:36;18.33;;;6.10;;
62584;SDS011;48643;51.670;5.808;2023-07-02T08:10:02;16.33;;;6.03;;
62584;SDS011;48643;51.670;5.808;2023-07-02T08:12:30;13.88;;;6.00;;
62584;SDS011;48643;51.670;5.808;2023-07-02T08:14:56;14.55;;;6.00;;
62584;SDS011;48643;51.670;5.808;2023-07-02T08:17:23;14.45;;;5.95;;
62584;SDS011;48643;51.670;5.808;2023-07-02T08:19:50;15.88;;;5.75;;
62584;SDS011;48643;51.670;5.808;2023-07-02T08:22:17;14.80;;;6.00;;
62584;SDS011;48643;51.670;5.808;2023-07-02T08:24:44;14.38;;;5.90;;
62584;SDS011;48643;51.670;5.808;2023-07-02T08:27:11;17.60;;;6.20;;
62584;SDS011;48643;51.670;5.808;2023-07-02T08:32:07;16.85;;;6.05;;
62584;SDS011;48643;51.670;5.808;2023-07-02T08:34:34;12.35;;;5.53;;
62584;SDS011;48643;51.670;5.808;2023-07-02T08:37:01;16.20;;;5.93;;
62584;SDS011;48643;51.670;5.808;2023-07-02T08:39:28;15.45;;;6.18;;
62584;SDS011;48643;51.670;5.808;2023-07-02T08:41:54;12.20;;;5.45;;
62584;SDS011;48643;51.670;5.808;2023-07-02T08:44:21;15.10;;;6.00;;
62584;SDS011;48643;51.670;5.808;2023-07-02T08:46:49;13.23;;;6.65;;
62584;SDS011;48643;51.670;5.808;2023-07-02T08:49:17;13.20;;;6.50;;
62584;SDS011;48643;51.670;5.808;2023-07-02T08:51:45;14.57;;;6.05;;
62584;SDS011;48643;51.670;5.808;2023-07-02T08:54:13;12.23;;;5.50;;
62584;SDS011;48643;51.670;5.808;2023-07-02T08:56:41;13.98;;;5.72;;
62584;SDS011;48643;51.670;5.808;2023-07-02T08:59:08;12.65;;;6.18;;
62584;SDS011;48643;51.670;5.808;2023-07-02T09:01:45;13.60;;;5.88;;
62584;SDS011;48643;51.670;5.808;2023-07-02T09:04:20;11.15;;;5.80;;
62584;SDS011;48643;51.670;5.808;2023-07-02T09:06:47;12.35;;;5.50;;
62584;SDS011;48643;51.670;5.808;2023-07-02T09:09:15;13.55;;;5.85;;
62584;SDS011;48643;51.670;5.808;2023-07-02T09:11:51;10.85;;;5.43;;
62584;SDS011;48643;51.670;5.808;2023-07-02T09:14:30;13.02;;;5.97;;
62584;SDS011;48643;51.670;5.808;2023-07-02T09:17:04;9.77;;;5.82;;
62584;SDS011;48643;51.670;5.808;2023-07-02T09:19:33;15.15;;;6.38;;
62584;SDS011;48643;51.670;5.808;2023-07-02T09:22:00;12.25;;;5.90;;
62584;SDS011;48643;51.670;5.808;2023-07-02T09:24:28;12.40;;;6.20;;
62584;SDS011;48643;51.670;5.808;2023-07-02T09:26:57;11.32;;;5.45;;
62584;SDS011;48643;51.670;5.808;2023-07-02T09:29:28;11.30;;;5.90;;
62584;SDS011;48643;51.670;5.808;2023-07-02T09:31:57;13.43;;;5.80;;
62584;SDS011;48643;51.670;5.808;2023-07-02T09:34:36;12.77;;;5.78;;
62584;SDS011;48643;51.670;5.808;2023-07-02T09:37:05;11.25;;;5.55;;
62584;SDS011;48643;51.670;5.808;2023-07-02T09:39:33;11.82;;;5.90;;
62584;SDS011;48643;51.670;5.808;2023-07-02T09:42:01;12.70;;;5.82;;
62584;SDS011;48643;51.670;5.808;2023-07-02T09:44:31;12.05;;;5.68;;
62584;SDS011;48643;51.670;5.808;2023-07-02T09:47:03;12.35;;;5.70;;
62584;SDS011;48643;51.670;5.808;2023-07-02T09:49:34;14.93;;;9.40;;
62584;SDS011;48643;51.670;5.808;2023-07-02T09:52:06;16.98;;;12.13;;
62584;SDS011;48643;51.670;5.808;2023-07-02T09:57:01;10.63;;;5.50;;
62584;SDS011;48643;51.670;5.808;2023-07-02T09:59:28;15.05;;;5.78;;
62584;SDS011;48643;51.670;5.808;2023-07-02T10:01:56;9.60;;;5.68;;
62584;SDS011;48643;51.670;5.808;2023-07-02T10:04:24;12.73;;;6.00;;
62584;SDS011;48643;51.670;5.808;2023-07-02T10:06:52;11.45;;;5.68;;
62584;SDS011;48643;51.670;5.808;2023-07-02T10:09:35;12.07;;;5.60;;
62584;SDS011;48643;51.670;5.808;2023-07-02T10:12:19;12.82;;;6.90;;
62584;SDS011;48643;51.670;5.808;2023-07-02T10:14:53;11.15;;;5.93;;
62584;SDS011;48643;51.670;5.808;2023-07-02T10:17:25;13.50;;;7.20;;
62584;SDS011;48643;51.670;5.808;2023-07-02T10:19:58;13.18;;;6.95;;
62584;SDS011;48643;51.670;5.808;2023-07-02T10:22:44;10.88;;;6.43;;
62584;SDS011;48643;51.670;5.808;2023-07-02T10:25:29;14.38;;;7.13;;
62584;SDS011;48643;51.670;5.808;2023-07-02T10:30:38;10.88;;;5.97;;
62584;SDS011;48643;51.670;5.808;2023-07-02T10:33:11;11.98;;;6.35;;
62584;SDS011;48643;51.670;5.808;2023-07-02T10:35:40;12.65;;;6.85;;
62584;SDS011;48643;51.670;5.808;2023-07-02T10:38:13;11.15;;;5.30;;
62584;SDS011;48643;51.670;5.808;2023-07-02T10:40:42;10.88;;;5.95;;
62584;SDS011;48643;51.670;5.808;2023-07-02T10:43:09;10.38;;;5.47;;
62584;SDS011;48643;51.670;5.808;2023-07-02T10:45:36;11.45;;;6.90;;
62584;SDS011;48643;51.670;5.808;2023-07-02T10:48:03;13.45;;;8.77;;
62584;SDS011;48643;51.670;5.808;2023-07-02T10:50:35;11.80;;;5.65;;
62584;SDS011;48643;51.670;5.808;2023-07-02T10:53:02;13.38;;;9.55;;
62584;SDS011;48643;51.670;5.808;2023-07-02T10:55:29;14.18;;;10.38;;
62584;SDS011;48643;51.670;5.808;2023-07-02T10:58:04;14.68;;;9.80;;
62584;SDS011;48643;51.670;5.808;2023-07-02T11:00:45;12.97;;;10.00;;
62584;SDS011;48643;51.670;5.808;2023-07-02T11:03:17;15.05;;;11.15;;
62584;SDS011;48643;51.670;5.808;2023-07-02T11:05:48;14.15;;;10.93;;
62584;SDS011;48643;51.670;5.808;2023-07-02T11:08:16;16.75;;;10.98;;
62584;SDS011;48643;51.670;5.808;2023-07-02T11:10:44;14.60;;;10.23;;
62584;SDS011;48643;51.670;5.808;2023-07-02T11:13:14;15.68;;;12.75;;
62584;SDS011;48643;51.670;5.808;2023-07-02T11:15:42;15.52;;;11.07;;
62584;SDS011;48643;51.670;5.808;2023-07-02T11:18:13;16.30;;;5.10;;
62584;SDS011;48643;51.670;5.808;2023-07-02T11:20:41;12.02;;;4.88;;
62584;SDS011;48643;51.670;5.808;2023-07-02T11:23:43;13.95;;;5.80;;
62584;SDS011;48643;51.670;5.808;2023-07-02T11:26:03;12.30;;;5.18;;
62584;SDS011;48643;51.670;5.808;2023-07-02T11:28:31;11.18;;;5.13;;
62584;SDS011;48643;51.670;5.808;2023-07-02T11:30:58;14.15;;;5.55;;
62584;SDS011;48643;51.670;5.808;2023-07-02T11:33:38;12.77;;;5.28;;
62584;SDS011;48643;51.670;5.808;2023-07-02T11:36:06;10.55;;;5.25;;
62584;SDS011;48643;51.670;5.808;2023-07-02T11:38:34;9.73;;;5.57;;
62584;SDS011;48643;51.670;5.808;2023-07-02T11:41:03;11.05;;;5.03;;
62584;SDS011;48643;51.670;5.808;2023-07-02T11:43:30;13.68;;;5.35;;
62584;SDS011;48643;51.670;5.808;2023-07-02T11:45:57;11.10;;;5.20;;
62584;SDS011;48643;51.670;5.808;2023-07-02T11:48:25;11.40;;;5.20;;
62584;SDS011;48643;51.670;5.808;2023-07-02T11:50:52;9.68;;;4.75;;
62584;SDS011;48643;51.670;5.808;2023-07-02T11:53:18;10.93;;;5.25;;
62584;SDS011;48643;51.670;5.808;2023-07-02T11:55:45;13.52;;;5.65;;
62584;SDS011;48643;51.670;5.808;2023-07-02T11:58:13;11.27;;;5.38;;
62584;SDS011;48643;51.670;5.808;2023-07-02T12:00:39;12.57;;;5.70;;
62584;SDS011;48643;51.670;5.808;2023-07-02T12:03:06;12.52;;;5.32;;
62584;SDS011;48643;51.670;5.808;2023-07-02T12:05:33;13.30;;;5.40;;
62584;SDS011;48643;51.670;5.808;2023-07-02T12:08:01;9.90;;;5.63;;
62584;SDS011;48643;51.670;5.808;2023-07-02T12:12:56;12.82;;;5.32;;
62584;SDS011;48643;51.670;5.808;2023-07-02T12:15:23;14.25;;;5.40;;
62584;SDS011;48643;51.670;5.808;2023-07-02T12:17:50;11.85;;;5.10;;
62584;SDS011;48643;51.670;5.808;2023-07-02T12:20:17;11.02;;;5.20;;
62584;SDS011;48643;51.670;5.808;2023-07-02T12:22:44;12.20;;;5.22;;
62584;SDS011;48643;51.670;5.808;2023-07-02T12:25:11;11.45;;;5.20;;
62584;SDS011;48643;51.670;5.808;2023-07-02T12:27:38;10.55;;;5.28;;
62584;SDS011;48643;51.670;5.808;2023-07-02T12:30:05;14.82;;;5.70;;
62584;SDS011;48643;51.670;5.808;2023-07-02T12:32:32;11.48;;;5.07;;
62584;SDS011;48643;51.670;5.808;2023-07-02T12:35:01;11.02;;;5.20;;
62584;SDS011;48643;51.670;5.808;2023-07-02T12:37:28;11.93;;;4.93;;
62584;SDS011;48643;51.670;5.808;2023-07-02T12:39:54;13.00;;;5.20;;
62584;SDS011;48643;51.670;5.808;2023-07-02T12:42:21;10.02;;;5.18;;
62584;SDS011;48643;51.670;5.808;2023-07-02T12:44:49;9.10;;;5.03;;
62584;SDS011;48643;51.670;5.808;2023-07-02T12:47:16;9.98;;;5.43;;
62584;SDS011;48643;51.670;5.808;2023-07-02T12:49:43;10.70;;;5.38;;
62584;SDS011;48643;51.670;5.808;2023-07-02T12:52:10;12.35;;;5.40;;
62584;SDS011;48643;51.670;5.808;2023-07-02T12:54:37;9.80;;;5.05;;
62584;SDS011;48643;51.670;5.808;2023-07-02T12:57:04;10.93;;;5.13;;
62584;SDS011;48643;51.670;5.808;2023-07-02T12:59:31;12.10;;;5.43;;
62584;SDS011;48643;51.670;5.808;2023-07-02T13:01:58;9.80;;;5.32;;
62584;SDS011;48643;51.670;5.808;2023-07-02T13:04:25;9.27;;;4.90;;
62584;SDS011;48643;51.670;5.808;2023-07-02T13:06:52;10.48;;;4.90;;
62584;SDS011;48643;51.670;5.808;2023-07-02T13:09:19;9.57;;;4.90;;
62584;SDS011;48643;51.670;5.808;2023-07-02T13:11:46;12.02;;;5.20;;
62584;SDS011;48643;51.670;5.808;2023-07-02T13:14:13;11.63;;;4.82;;
62584;SDS011;48643;51.670;5.808;2023-07-02T13:16:40;9.35;;;4.65;;
62584;SDS011;48643;51.670;5.808;2023-07-02T13:19:07;10.93;;;4.80;;
62584;SDS011;48643;51.670;5.808;2023-07-02T13:21:34;10.38;;;4.90;;
62584;SDS011;48643;51.670;5.808;2023-07-02T13:24:00;10.88;;;4.78;;
62584;SDS011;48643;51.670;5.808;2023-07-02T13:26:27;7.75;;;4.60;;
62584;SDS011;48643;51.670;5.808;2023-07-02T13:28:54;10.80;;;4.90;;
62584;SDS011;48643;51.670;5.808;2023-07-02T13:31:21;10.98;;;5.20;;
62584;SDS011;48643;51.670;5.808;2023-07-02T13:33:48;8.40;;;4.60;;
62584;SDS011;48643;51.670;5.808;2023-07-02T13:36:16;8.07;;;4.70;;
62584;SDS011;48643;51.670;5.808;2023-07-02T13:38:43;9.57;;;4.70;;
62584;SDS011;48643;51.670;5.808;2023-07-02T13:41:09;8.25;;;4.40;;
62584;SDS011;48643;51.670;5.808;2023-07-02T13:43:36;9.05;;;4.60;;
62584;SDS011;48643;51.670;5.808;2023-07-02T13:46:03;8.68;;;4.60;;
62584;SDS011;48643;51.670;5.808;2023-07-02T13:48:30;9.05;;;4.68;;
62584;SDS011;48643;51.670;5.808;2023-07-02T13:50:58;8.63;;;4.70;;
62584;SDS011;48643;51.670;5.808;2023-07-02T13:53:25;9.82;;;4.28;;
62584;SDS011;48643;51.670;5.808;2023-07-02T13:55:51;8.95;;;4.47;;
62584;SDS011;48643;51.670;5.808;2023-07-02T13:58:18;7.60;;;4.38;;
62584;SDS011;48643;51.670;5.808;2023-07-02T14:00:55;7.35;;;3.92;;
62584;SDS011;48643;51.670;5.808;2023-07-02T14:03:23;9.10;;;4.60;;
62584;SDS011;48643;51.670;5.808;2023-07-02T14:05:50;7.95;;;4.38;;
62584;SDS011;48643;51.670;5.808;2023-07-02T14:08:17;8.15;;;4.50;;
62584;SDS011;48643;51.670;5.808;2023-07-02T14:10:44;11.75;;;4.43;;
62584;SDS011;48643;51.670;5.808;2023-07-02T14:13:11;7.85;;;4.18;;
62584;SDS011;48643;51.670;5.808;2023-07-02T14:15:38;8.20;;;4.18;;
62584;SDS011;48643;51.670;5.808;2023-07-02T14:18:05;9.80;;;4.20;;
62584;SDS011;48643;51.670;5.808;2023-07-02T14:20:32;8.23;;;4.32;;
62584;SDS011;48643;51.670;5.808;2023-07-02T14:22:59;7.93;;;4.07;;
62584;SDS011;48643;51.670;5.808;2023-07-02T14:25:25;8.73;;;4.30;;
62584;SDS011;48643;51.670;5.808;2023-07-02T14:28:06;6.65;;;3.97;;
62584;SDS011;48643;51.670;5.808;2023-07-02T14:30:33;7.38;;;4.15;;
62584;SDS011;48643;51.670;5.808;2023-07-02T14:33:00;8.70;;;4.22;;
62584;SDS011;48643;51.670;5.808;2023-07-02T14:35:27;6.13;;;3.85;;
62584;SDS011;48643;51.670;5.808;2023-07-02T14:40:23;8.25;;;4.25;;
62584;SDS011;48643;51.670;5.808;2023-07-02T14:42:50;6.93;;;4.13;;
62584;SDS011;48643;51.670;5.808;2023-07-02T14:45:17;9.05;;;4.20;;
62584;SDS011;48643;51.670;5.808;2023-07-02T14:47:44;6.63;;;4.05;;
62584;SDS011;48643;51.670;5.808;2023-07-02T14:50:11;8.35;;;4.28;;
62584;SDS011;48643;51.670;5.808;2023-07-02T14:52:37;6.93;;;4.10;;
62584;SDS011;48643;51.670;5.808;2023-07-02T14:55:04;9.27;;;4.30;;
62584;SDS011;48643;51.670;5.808;2023-07-02T14:57:31;6.32;;;3.90;;
62584;SDS011;48643;51.670;5.808;2023-07-02T14:59:58;8.43;;;4.13;;
62584;SDS011;48643;51.670;5.808;2023-07-02T15:02:25;7.50;;;3.90;;